sensor_id;sensor_type;location;lat;lon;timestamp;pressure;altitude;pressure_sealevel;temperature;humidity
77626;BME280;66794;43.764;10.436;2023-04-24T00:01:02;101153.47;;;15.90;100.00
77626;BME280;66794;43.764;10.436;2023-04-24T00:03:47;101147.59;;;15.93;100.00
77626;BME280;66794;43.764;10.436;2023-04-24T00:06:33;101145.88;;;15.85;100.00
77626;BME280;66794;43.764;10.436;2023-04-24T00:09:19;101138.16;;;15.89;100.00
77626;BME280;66794;43.764;10.436;2023-04-24T00:12:04;101136.47;;;15.88;100.00
77626;BME280;66794;43.764;10.436;2023-04-24T00:14:50;101130.38;;;15.92;100.00
77626;BME280;66794;43.764;10.436;2023-04-24T00:17:36;101090.41;;;15.78;100.00
77626;BME280;66794;43.764;10.436;2023-04-24T00:20:21;101098.84;;;15.83;100.00
77626;BME280;66794;43.764;10.436;2023-04-24T00:23:07;101127.03;;;15.97;100.00
77626;BME280;66794;43.764;10.436;2023-04-24T00:25:53;101132.94;;;16.00;100.00
77626;BME280;66794;43.764;10.436;2023-04-24T00:28:39;101131.63;;;15.90;100.00
77626;BME280;66794;43.764;10.436;2023-04-24T00:31:24;101132.22;;;15.85;100.00
77626;BME280;66794;43.764;10.436;2023-04-24T00:34:10;101127.19;;;15.82;100.00
77626;BME280;66794;43.764;10.436;2023-04-24T00:36:56;101132.72;;;15.95;100.00
77626;BME280;66794;43.764;10.436;2023-04-24T00:39:42;101120.72;;;15.90;100.00
77626;BME280;66794;43.764;10.436;2023-04-24T00:42:28;101119.41;;;15.86;100.00
77626;BME280;66794;43.764;10.436;2023-04-24T00:45:14;101116.72;;;15.92;100.00
77626;BME280;66794;43.764;10.436;2023-04-24T00:48:00;101092.78;;;15.88;100.00
77626;BME280;66794;43.764;10.436;2023-04-24T00:50:45;101096.13;;;15.90;100.00
77626;BME280;66794;43.764;10.436;2023-04-24T00:53:31;101096.38;;;15.95;100.00
77626;BME280;66794;43.764;10.436;2023-04-24T00:56:17;101101.22;;;15.99;100.00
77626;BME280;66794;43.764;10.436;2023-04-24T00:59:03;101099.47;;;15.92;100.00
77626;BME280;66794;43.764;10.436;2023-04-24T01:01:49;101110.81;;;15.82;100.00
77626;BME280;66794;43.764;10.436;2023-04-24T01:04:35;101107.41;;;15.80;100.00
77626;BME280;66794;43.764;10.436;2023-04-24T01:07:21;101106.00;;;15.91;100.00
77626;BME280;66794;43.764;10.436;2023-04-24T01:10:07;101108.28;;;15.87;100.00
77626;BME280;66794;43.764;10.436;2023-04-24T01:12:53;101097.59;;;15.92;100.00
77626;BME280;66794;43.764;10.436;2023-04-24T01:15:39;101112.09;;;15.93;100.00
77626;BME280;66794;43.764;10.436;2023-04-24T01:18:25;101100.97;;;15.94;100.00
77626;BME280;66794;43.764;10.436;2023-04-24T01:21:12;101098.03;;;15.96;100.00
77626;BME280;66794;43.764;10.436;2023-04-24T01:23:58;101092.59;;;15.96;100.00
77626;BME280;66794;43.764;10.436;2023-04-24T01:26:44;101069.28;;;16.00;100.00
77626;BME280;66794;43.764;10.436;2023-04-24T01:29:29;101067.84;;;16.04;100.00
77626;BME280;66794;43.764;10.436;2023-04-24T01:32:15;101072.22;;;15.98;100.00
77626;BME280;66794;43.764;10.436;2023-04-24T01:35:01;101069.50;;;15.98;100.00
77626;BME280;66794;43.764;10.436;2023-04-24T01:37:47;101062.75;;;16.01;100.00
77626;BME280;66794;43.764;10.436;2023-04-24T01:40:32;101051.22;;;15.99;100.00
77626;BME280;66794;43.764;10.436;2023-04-24T01:43:19;101045.31;;;16.02;100.00
77626;BME280;66794;43.764;10.436;2023-04-24T01:46:05;101045.09;;;16.03;100.00
77626;BME280;66794;43.764;10.436;2023-04-24T01:48:51;101044.09;;;16.04;100.00
77626;BME280;66794;43.764;10.436;2023-04-24T01:51:37;101051.00;;;16.00;100.00
77626;BME280;66794;43.764;10.436;2023-04-24T01:54:23;101062.38;;;16.04;100.00
77626;BME280;66794;43.764;10.436;2023-04-24T01:57:08;101059.44;;;16.06;100.00
77626;BME280;66794;43.764;10.436;2023-04-24T01:59:54;101055.63;;;16.07;100.00
77626;BME280;66794;43.764;10.436;2023-04-24T02:02:40;101053.75;;;16.07;100.00
77626;BME280;66794;43.764;10.436;2023-04-24T02:05:26;101061.94;;;16.07;100.00
77626;BME280;66794;43.764;10.436;2023-04-24T02:08:11;101064.88;;;16.06;100.00
77626;BME280;66794;43.764;10.436;2023-04-24T02:10:57;101056.47;;;16.07;100.00
77626;BME280;66794;43.764;10.436;2023-04-24T02:13:43;101047.22;;;16.08;100.00
77626;BME280;66794;43.764;10.436;2023-04-24T02:16:28;101036.13;;;16.10;100.00
77626;BME280;66794;43.764;10.436;2023-04-24T02:19:17;101030.84;;;16.08;100.00
77626;BME280;66794;43.764;10.436;2023-04-24T02:22:03;101026.44;;;16.07;100.00
77626;BME280;66794;43.764;10.436;2023-04-24T02:24:48;101040.94;;;16.08;100.00
77626;BME280;66794;43.764;10.436;2023-04-24T02:27:34;101034.84;;;16.06;100.00
77626;BME280;66794;43.764;10.436;2023-04-24T02:30:19;101024.13;;;16.04;100.00
77626;BME280;66794;43.764;10.436;2023-04-24T02:33:05;101030.00;;;16.08;100.00
77626;BME280;66794;43.764;10.436;2023-04-24T02:35:51;101031.66;;;16.02;100.00
77626;BME280;66794;43.764;10.436;2023-04-24T02:38:37;101032.50;;;16.02;100.00
77626;BME280;66794;43.764;10.436;2023-04-24T02:41:22;101043.41;;;15.96;100.00
77626;BME280;66794;43.764;10.436;2023-04-24T02:44:08;101028.31;;;16.00;100.00
77626;BME280;66794;43.764;10.436;2023-04-24T02:46:53;101037.50;;;15.92;100.00
77626;BME280;66794;43.764;10.436;2023-04-24T02:49:39;101032.69;;;15.88;100.00
77626;BME280;66794;43.764;10.436;2023-04-24T02:52:25;101044.44;;;15.88;100.00
77626;BME280;66794;43.764;10.436;2023-04-24T02:55:10;101036.25;;;15.88;100.00
77626;BME280;66794;43.764;10.436;2023-04-24T02:57:56;101029.09;;;15.87;100.00
77626;BME280;66794;43.764;10.436;2023-04-24T03:00:41;101030.38;;;15.91;100.00
77626;BME280;66794;43.764;10.436;2023-04-24T03:03:28;101030.56;;;15.90;100.00
77626;BME280;66794;43.764;10.436;2023-04-24T03:06:14;101010.19;;;15.86;100.00
77626;BME280;66794;43.764;10.436;2023-04-24T03:08:59;101024.66;;;15.86;100.00
77626;BME280;66794;43.764;10.436;2023-04-24T03:11:45;101018.13;;;15.81;100.00
77626;BME280;66794;43.764;10.436;2023-04-24T03:14:31;101007.66;;;15.84;100.00
77626;BME280;66794;43.764;10.436;2023-04-24T03:17:16;101006.84;;;15.90;100.00
77626;BME280;66794;43.764;10.436;2023-04-24T03:20:02;101008.13;;;15.94;100.00
77626;BME280;66794;43.764;10.436;2023-04-24T03:22:48;100996.53;;;15.92;100.00
77626;BME280;66794;43.764;10.436;2023-04-24T03:25:33;100999.28;;;15.92;100.00
77626;BME280;66794;43.764;10.436;2023-04-24T03:28:19;101003.50;;;15.95;100.00
77626;BME280;66794;43.764;10.436;2023-04-24T03:31:05;100993.41;;;15.95;100.00
77626;BME280;66794;43.764;10.436;2023-04-24T03:33:50;100989.00;;;15.94;100.00
77626;BME280;66794;43.764;10.436;2023-04-24T03:36:36;100987.09;;;15.95;100.00
77626;BME280;66794;43.764;10.436;2023-04-24T03:39:22;100990.69;;;15.95;100.00
77626;BME280;66794;43.764;10.436;2023-04-24T03:42:07;100986.06;;;15.96;100.00
77626;BME280;66794;43.764;10.436;2023-04-24T03:44:53;100985.44;;;15.94;100.00
77626;BME280;66794;43.764;10.436;2023-04-24T03:47:39;100982.88;;;15.92;100.00
77626;BME280;66794;43.764;10.436;2023-04-24T03:50:25;100982.47;;;15.89;100.00
77626;BME280;66794;43.764;10.436;2023-04-24T03:53:12;100985.19;;;15.89;100.00
77626;BME280;66794;43.764;10.436;2023-04-24T03:55:57;100987.09;;;15.88;100.00
77626;BME280;66794;43.764;10.436;2023-04-24T03:58:43;100984.38;;;15.88;100.00
77626;BME280;66794;43.764;10.436;2023-04-24T04:01:28;100979.91;;;15.87;100.00
77626;BME280;66794;43.764;10.436;2023-04-24T04:04:16;100977.19;;;15.87;100.00
77626;BME280;66794;43.764;10.436;2023-04-24T04:07:01;100974.28;;;15.89;100.00
77626;BME280;66794;43.764;10.436;2023-04-24T04:09:48;100980.13;;;15.86;100.00
77626;BME280;66794;43.764;10.436;2023-04-24T04:12:33;100983.09;;;15.84;100.00
77626;BME280;66794;43.764;10.436;2023-04-24T04:15:19;100971.31;;;15.84;100.00
77626;BME280;66794;43.764;10.436;2023-04-24T04:18:05;100975.09;;;15.83;100.00
77626;BME280;66794;43.764;10.436;2023-04-24T04:20:50;100974.06;;;15.84;100.00
77626;BME280;66794;43.764;10.436;2023-04-24T04:23:36;100978.00;;;15.81;100.00
77626;BME280;66794;43.764;10.436;2023-04-24T04:26:22;100974.44;;;15.81;100.00
77626;BME280;66794;43.764;10.436;2023-04-24T04:29:10;100980.75;;;15.81;100.00
77626;BME280;66794;43.764;10.436;2023-04-24T04:31:57;100989.59;;;15.83;100.00
77626;BME280;66794;43.764;10.436;2023-04-24T04:34:43;100984.97;;;15.77;100.00
77626;BME280;66794;43.764;10.436;2023-04-24T04:37:30;100998.63;;;15.77;100.00
77626;BME280;66794;43.764;10.436;2023-04-24T04:40:16;100997.94;;;15.68;100.00
77626;BME280;66794;43.764;10.436;2023-04-24T04:43:02;101002.34;;;15.69;100.00
77626;BME280;66794;43.764;10.436;2023-04-24T04:45:48;101009.47;;;15.70;100.00
77626;BME280;66794;43.764;10.436;2023-04-24T04:48:34;101019.16;;;15.73;100.00
77626;BME280;66794;43.764;10.436;2023-04-24T04:51:20;101011.13;;;15.65;100.00
77626;BME280;66794;43.764;10.436;2023-04-24T04:54:06;101016.16;;;15.61;100.00
77626;BME280;66794;43.764;10.436;2023-04-24T04:56:51;101008.97;;;15.60;100.00
77626;BME280;66794;43.764;10.436;2023-04-24T04:59:37;100999.53;;;15.56;100.00
77626;BME280;66794;43.764;10.436;2023-04-24T05:02:23;100996.59;;;15.58;100.00
77626;BME280;66794;43.764;10.436;2023-04-24T05:05:09;101009.19;;;15.59;100.00
77626;BME280;66794;43.764;10.436;2023-04-24T05:07:55;101010.88;;;15.60;100.00
77626;BME280;66794;43.764;10.436;2023-04-24T05:10:41;101010.69;;;15.61;100.00
77626;BME280;66794;43.764;10.436;2023-04-24T05:13:27;101003.34;;;15.62;100.00
77626;BME280;66794;43.764;10.436;2023-04-24T05:16:13;100997.41;;;15.51;100.00
77626;BME280;66794;43.764;10.436;2023-04-24T05:19:02;100991.72;;;15.46;100.00
77626;BME280;66794;43.764;10.436;2023-04-24T05:21:48;100991.03;;;15.38;100.00
77626;BME280;66794;43.764;10.436;2023-04-24T05:24:34;100970.25;;;15.37;100.00
77626;BME280;66794;43.764;10.436;2023-04-24T05:27:20;100971.09;;;15.37;100.00
77626;BME280;66794;43.764;10.436;2023-04-24T05:30:06;100985.78;;;15.36;100.00
77626;BME280;66794;43.764;10.436;2023-04-24T05:32:52;100994.81;;;15.37;100.00
77626;BME280;66794;43.764;10.436;2023-04-24T05:35:37;101001.13;;;15.44;100.00
77626;BME280;66794;43.764;10.436;2023-04-24T05:38:23;100992.41;;;15.55;100.00
77626;BME280;66794;43.764;10.436;2023-04-24T05:41:09;100994.75;;;15.65;100.00
77626;BME280;66794;43.764;10.436;2023-04-24T05:43:54;100993.31;;;15.69;100.00
77626;BME280;66794;43.764;10.436;2023-04-24T05:46:40;101005.09;;;15.76;100.00
77626;BME280;66794;43.764;10.436;2023-04-24T05:49:26;101003.03;;;15.78;100.00
77626;BME280;66794;43.764;10.436;2023-04-24T05:52:11;101004.31;;;15.82;100.00
77626;BME280;66794;43.764;10.436;2023-04-24T05:54:57;101010.19;;;15.86;100.00
77626;BME280;66794;43.764;10.436;2023-04-24T05:57:42;101011.00;;;15.86;100.00
77626;BME280;66794;43.764;10.436;2023-04-24T06:00:28;101008.94;;;15.88;100.00
77626;BME280;66794;43.764;10.436;2023-04-24T06:03:14;101004.50;;;15.87;100.00
77626;BME280;66794;43.764;10.436;2023-04-24T06:06:00;100967.47;;;15.65;100.00
77626;BME280;66794;43.764;10.436;2023-04-24T06:08:46;100996.97;;;15.96;100.00
77626;BME280;66794;43.764;10.436;2023-04-24T06:11:31;101006.00;;;15.90;100.00
77626;BME280;66794;43.764;10.436;2023-04-24T06:14:17;101001.59;;;15.89;100.00
77626;BME280;66794;43.764;10.436;2023-04-24T06:17:02;100998.84;;;15.82;100.00
77626;BME280;66794;43.764;10.436;2023-04-24T06:19:48;100992.50;;;15.82;100.00
77626;BME280;66794;43.764;10.436;2023-04-24T06:22:34;100983.91;;;15.85;100.00
77626;BME280;66794;43.764;10.436;2023-04-24T06:25:20;100992.97;;;15.92;100.00
77626;BME280;66794;43.764;10.436;2023-04-24T06:28:06;100982.25;;;15.90;100.00
77626;BME280;66794;43.764;10.436;2023-04-24T06:30:51;100996.34;;;15.94;100.00
77626;BME280;66794;43.764;10.436;2023-04-24T06:33:37;100993.84;;;15.99;100.00
77626;BME280;66794;43.764;10.436;2023-04-24T06:36:23;100999.69;;;15.83;100.00
77626;BME280;66794;43.764;10.436;2023-04-24T06:39:08;100996.53;;;15.86;100.00
77626;BME280;66794;43.764;10.436;2023-04-24T06:41:54;100990.91;;;16.14;100.00
77626;BME280;66794;43.764;10.436;2023-04-24T06:44:40;100997.88;;;16.10;100.00
77626;BME280;66794;43.764;10.436;2023-04-24T06:47:26;100994.75;;;16.33;100.00
77626;BME280;66794;43.764;10.436;2023-04-24T06:50:11;100995.38;;;16.35;100.00
77626;BME280;66794;43.764;10.436;2023-04-24T06:52:57;100994.13;;;16.50;100.00
77626;BME280;66794;43.764;10.436;2023-04-24T06:55:43;100996.22;;;16.35;100.00
77626;BME280;66794;43.764;10.436;2023-04-24T06:58:31;100995.59;;;16.33;100.00
77626;BME280;66794;43.764;10.436;2023-04-24T07:01:17;100998.31;;;16.33;100.00
77626;BME280;66794;43.764;10.436;2023-04-24T07:04:02;101006.31;;;16.28;100.00
77626;BME280;66794;43.764;10.436;2023-04-24T07:06:48;101005.06;;;15.63;100.00
77626;BME280;66794;43.764;10.436;2023-04-24T07:09:39;101008.63;;;15.29;100.00
77626;BME280;66794;43.764;10.436;2023-04-24T07:12:27;101000.38;;;15.22;100.00
77626;BME280;66794;43.764;10.436;2023-04-24T07:15:13;100999.28;;;15.16;100.00
77626;BME280;66794;43.764;10.436;2023-04-24T07:17:58;100999.28;;;15.16;100.00
77626;BME280;66794;43.764;10.436;2023-04-24T07:20:44;100999.75;;;15.20;100.00
77626;BME280;66794;43.764;10.436;2023-04-24T07:23:30;101005.66;;;15.23;100.00
77626;BME280;66794;43.764;10.436;2023-04-24T07:26:16;101004.44;;;15.33;100.00
77626;BME280;66794;43.764;10.436;2023-04-24T07:29:02;101013.91;;;15.37;100.00
77626;BME280;66794;43.764;10.436;2023-04-24T07:31:48;100994.47;;;15.53;100.00
77626;BME280;66794;43.764;10.436;2023-04-24T07:34:33;100999.13;;;15.59;100.00
77626;BME280;66794;43.764;10.436;2023-04-24T07:37:19;100997.31;;;15.66;100.00
77626;BME280;66794;43.764;10.436;2023-04-24T07:40:05;100999.63;;;15.76;100.00
77626;BME280;66794;43.764;10.436;2023-04-24T07:42:51;100993.03;;;16.12;100.00
77626;BME280;66794;43.764;10.436;2023-04-24T07:45:37;100991.66;;;16.75;100.00
77626;BME280;66794;43.764;10.436;2023-04-24T07:48:23;100988.69;;;16.83;100.00
77626;BME280;66794;43.764;10.436;2023-04-24T07:51:10;100987.63;;;16.65;100.00
77626;BME280;66794;43.764;10.436;2023-04-24T07:53:58;100988.03;;;16.62;100.00
77626;BME280;66794;43.764;10.436;2023-04-24T07:56:44;100992.47;;;16.49;100.00
77626;BME280;66794;43.764;10.436;2023-04-24T07:59:30;100989.91;;;16.35;100.00
77626;BME280;66794;43.764;10.436;2023-04-24T08:02:15;100978.13;;;16.41;100.00
77626;BME280;66794;43.764;10.436;2023-04-24T08:05:01;100981.09;;;16.39;100.00
77626;BME280;66794;43.764;10.436;2023-04-24T08:07:48;100980.25;;;16.32;100.00
77626;BME280;66794;43.764;10.436;2023-04-24T08:10:35;100973.50;;;16.21;100.00
77626;BME280;66794;43.764;10.436;2023-04-24T08:13:21;100973.47;;;16.08;100.00
77626;BME280;66794;43.764;10.436;2023-04-24T08:16:07;100973.09;;;16.51;100.00
77626;BME280;66794;43.764;10.436;2023-04-24T08:18:53;100975.75;;;17.37;100.00
77626;BME280;66794;43.764;10.436;2023-04-24T08:21:38;100973.31;;;16.89;100.00
77626;BME280;66794;43.764;10.436;2023-04-24T08:24:24;100994.16;;;16.83;100.00
77626;BME280;66794;43.764;10.436;2023-04-24T08:27:10;100995.63;;;16.66;100.00
77626;BME280;66794;43.764;10.436;2023-04-24T08:29:56;101008.81;;;16.36;100.00
77626;BME280;66794;43.764;10.436;2023-04-24T08:32:42;101009.03;;;16.35;100.00
77626;BME280;66794;43.764;10.436;2023-04-24T08:35:28;101013.44;;;16.16;100.00
77626;BME280;66794;43.764;10.436;2023-04-24T08:38:13;101009.22;;;16.13;100.00
77626;BME280;66794;43.764;10.436;2023-04-24T08:40:59;101010.66;;;16.09;100.00
77626;BME280;66794;43.764;10.436;2023-04-24T08:43:46;101014.91;;;16.25;100.00
77626;BME280;66794;43.764;10.436;2023-04-24T08:46:31;101026.78;;;16.72;100.00
77626;BME280;66794;43.764;10.436;2023-04-24T08:49:18;101012.84;;;17.26;100.00
77626;BME280;66794;43.764;10.436;2023-04-24T08:52:04;101018.34;;;16.93;100.00
77626;BME280;66794;43.764;10.436;2023-04-24T08:54:50;101020.00;;;16.48;100.00
77626;BME280;66794;43.764;10.436;2023-04-24T08:57:36;101016.84;;;16.44;100.00
77626;BME280;66794;43.764;10.436;2023-04-24T09:00:23;101025.88;;;16.45;100.00
77626;BME280;66794;43.764;10.436;2023-04-24T09:03:09;101031.78;;;16.55;100.00
77626;BME280;66794;43.764;10.436;2023-04-24T09:05:55;101024.63;;;16.47;100.00
77626;BME280;66794;43.764;10.436;2023-04-24T09:08:41;101032.22;;;16.65;100.00
77626;BME280;66794;43.764;10.436;2023-04-24T09:11:29;101038.72;;;16.57;100.00
77626;BME280;66794;43.764;10.436;2023-04-24T09:14:15;101036.44;;;16.74;100.00
77626;BME280;66794;43.764;10.436;2023-04-24T09:17:02;101046.09;;;16.64;100.00
77626;BME280;66794;43.764;10.436;2023-04-24T09:19:49;101041.44;;;16.57;100.00
77626;BME280;66794;43.764;10.436;2023-04-24T09:22:35;101047.81;;;16.78;100.00
77626;BME280;66794;43.764;10.436;2023-04-24T09:25:21;101041.03;;;16.67;100.00
77626;BME280;66794;43.764;10.436;2023-04-24T09:28:07;101045.47;;;16.62;100.00
77626;BME280;66794;43.764;10.436;2023-04-24T09:31:05;101037.69;;;16.59;100.00
77626;BME280;66794;43.764;10.436;2023-04-24T09:33:55;101028.19;;;17.27;100.00
77626;BME280;66794;43.764;10.436;2023-04-24T09:36:42;101034.66;;;17.53;100.00
77626;BME280;66794;43.764;10.436;2023-04-24T09:39:27;101041.50;;;17.24;100.00
77626;BME280;66794;43.764;10.436;2023-04-24T09:42:13;101039.72;;;17.49;100.00
77626;BME280;66794;43.764;10.436;2023-04-24T09:44:59;101030.69;;;17.42;100.00
77626;BME280;66794;43.764;10.436;2023-04-24T09:47:44;101031.22;;;17.71;100.00
77626;BME280;66794;43.764;10.436;2023-04-24T09:50:31;101027.81;;;17.95;100.00
77626;BME280;66794;43.764;10.436;2023-04-24T09:53:23;101030.38;;;18.28;100.00
77626;BME280;66794;43.764;10.436;2023-04-24T09:56:09;101023.91;;;18.79;100.00
77626;BME280;66794;43.764;10.436;2023-04-24T09:58:57;100954.22;;;18.30;100.00
77626;BME280;66794;43.764;10.436;2023-04-24T10:01:49;101029.56;;;18.53;100.00
77626;BME280;66794;43.764;10.436;2023-04-24T10:04:34;101028.22;;;18.62;100.00
77626;BME280;66794;43.764;10.436;2023-04-24T10:07:20;101034.97;;;18.34;100.00
77626;BME280;66794;43.764;10.436;2023-04-24T10:10:06;101040.56;;;18.46;100.00
77626;BME280;66794;43.764;10.436;2023-04-24T10:12:52;101044.22;;;18.02;100.00
77626;BME280;66794;43.764;10.436;2023-04-24T10:15:39;101039.31;;;17.52;100.00
77626;BME280;66794;43.764;10.436;2023-04-24T10:18:26;101046.25;;;17.61;100.00
77626;BME280;66794;43.764;10.436;2023-04-24T10:21:12;101041.47;;;18.02;100.00
77626;BME280;66794;43.764;10.436;2023-04-24T10:23:57;101038.81;;;17.82;100.00
77626;BME280;66794;43.764;10.436;2023-04-24T10:26:45;101042.06;;;17.52;100.00
77626;BME280;66794;43.764;10.436;2023-04-24T10:29:31;101043.13;;;17.38;100.00
77626;BME280;66794;43.764;10.436;2023-04-24T10:32:17;101009.03;;;17.92;100.00
77626;BME280;66794;43.764;10.436;2023-04-24T10:35:02;101049.47;;;18.03;100.00
77626;BME280;66794;43.764;10.436;2023-04-24T10:37:49;101056.13;;;17.63;100.00
77626;BME280;66794;43.764;10.436;2023-04-24T10:40:36;101059.59;;;18.03;100.00
77626;BME280;66794;43.764;10.436;2023-04-24T10:43:22;101053.88;;;18.43;100.00
77626;BME280;66794;43.764;10.436;2023-04-24T10:46:07;101057.13;;;18.33;100.00
77626;BME280;66794;43.764;10.436;2023-04-24T10:48:55;101051.41;;;18.98;100.00
77626;BME280;66794;43.764;10.436;2023-04-24T10:51:46;101056.94;;;18.28;100.00
77626;BME280;66794;43.764;10.436;2023-04-24T10:54:36;101055.63;;;17.92;100.00
77626;BME280;66794;43.764;10.436;2023-04-24T10:57:25;101058.09;;;18.45;100.00
77626;BME280;66794;43.764;10.436;2023-04-24T11:00:14;101068.25;;;19.01;100.00
77626;BME280;66794;43.764;10.436;2023-04-24T11:03:01;101070.00;;;18.96;100.00
77626;BME280;66794;43.764;10.436;2023-04-24T11:05:55;101077.09;;;18.02;100.00
77626;BME280;66794;43.764;10.436;2023-04-24T11:08:44;101085.53;;;18.00;100.00
77626;BME280;66794;43.764;10.436;2023-04-24T11:11:30;101093.09;;;18.11;100.00
77626;BME280;66794;43.764;10.436;2023-04-24T11:14:16;101084.94;;;17.92;100.00
77626;BME280;66794;43.764;10.436;2023-04-24T11:17:02;101094.16;;;18.10;100.00
77626;BME280;66794;43.764;10.436;2023-04-24T11:19:50;101085.00;;;17.78;100.00
77626;BME280;66794;43.764;10.436;2023-04-24T11:22:37;101087.91;;;17.77;100.00
77626;BME280;66794;43.764;10.436;2023-04-24T11:25:25;101092.38;;;17.78;100.00
77626;BME280;66794;43.764;10.436;2023-04-24T11:28:14;101102.00;;;17.87;100.00
77626;BME280;66794;43.764;10.436;2023-04-24T11:31:33;101099.28;;;17.87;100.00
77626;BME280;66794;43.764;10.436;2023-04-24T11:34:10;101110.50;;;17.52;100.00
77626;BME280;66794;43.764;10.436;2023-04-24T11:36:56;101103.56;;;18.21;97.25
77626;BME280;66794;43.764;10.436;2023-04-24T11:39:42;101101.88;;;18.27;91.31
77626;BME280;66794;43.764;10.436;2023-04-24T11:42:28;101099.03;;;17.88;92.33
77626;BME280;66794;43.764;10.436;2023-04-24T11:45:15;101091.13;;;18.57;92.18
77626;BME280;66794;43.764;10.436;2023-04-24T11:48:00;101094.06;;;17.52;89.87
77626;BME280;66794;43.764;10.436;2023-04-24T11:50:47;101098.38;;;18.83;91.73
77626;BME280;66794;43.764;10.436;2023-04-24T11:53:33;101101.31;;;18.88;86.27
77626;BME280;66794;43.764;10.436;2023-04-24T11:56:19;101104.00;;;18.18;86.67
77626;BME280;66794;43.764;10.436;2023-04-24T11:59:05;101109.22;;;18.71;85.46
77626;BME280;66794;43.764;10.436;2023-04-24T12:01:50;101096.25;;;18.85;86.76
77626;BME280;66794;43.764;10.436;2023-04-24T12:04:39;101088.13;;;18.72;85.42
77626;BME280;66794;43.764;10.436;2023-04-24T12:07:26;101092.69;;;19.09;85.86
77626;BME280;66794;43.764;10.436;2023-04-24T12:10:12;101099.84;;;19.10;88.38
77626;BME280;66794;43.764;10.436;2023-04-24T12:12:57;101098.72;;;18.93;86.20
77626;BME280;66794;43.764;10.436;2023-04-24T12:15:43;101098.38;;;19.08;85.68
77626;BME280;66794;43.764;10.436;2023-04-24T12:18:29;101098.00;;;19.04;85.13
77626;BME280;66794;43.764;10.436;2023-04-24T12:21:15;101086.97;;;19.36;86.98
77626;BME280;66794;43.764;10.436;2023-04-24T12:24:01;101087.75;;;19.61;86.69
77626;BME280;66794;43.764;10.436;2023-04-24T12:26:47;101090.41;;;19.50;85.05
77626;BME280;66794;43.764;10.436;2023-04-24T12:29:33;101095.19;;;19.36;83.22
77626;BME280;66794;43.764;10.436;2023-04-24T12:32:18;101094.06;;;19.18;83.11
77626;BME280;66794;43.764;10.436;2023-04-24T12:35:04;101091.78;;;19.15;82.46
77626;BME280;66794;43.764;10.436;2023-04-24T12:37:51;101092.03;;;19.57;83.75
77626;BME280;66794;43.764;10.436;2023-04-24T12:40:37;101093.28;;;18.86;84.45
77626;BME280;66794;43.764;10.436;2023-04-24T12:43:22;101108.38;;;18.64;83.43
77626;BME280;66794;43.764;10.436;2023-04-24T12:46:08;101099.53;;;19.25;83.71
77626;BME280;66794;43.764;10.436;2023-04-24T12:48:54;101085.44;;;18.90;83.05
77626;BME280;66794;43.764;10.436;2023-04-24T12:51:39;101092.72;;;18.78;84.19
77626;BME280;66794;43.764;10.436;2023-04-24T12:54:25;101096.00;;;18.86;80.51
77626;BME280;66794;43.764;10.436;2023-04-24T12:57:11;101089.81;;;19.84;81.98
77626;BME280;66794;43.764;10.436;2023-04-24T12:59:57;101079.47;;;19.25;81.52
77626;BME280;66794;43.764;10.436;2023-04-24T13:02:43;101080.31;;;19.25;83.55
77626;BME280;66794;43.764;10.436;2023-04-24T13:05:28;101083.81;;;20.12;81.12
77626;BME280;66794;43.764;10.436;2023-04-24T13:08:14;101084.56;;;19.64;79.99
77626;BME280;66794;43.764;10.436;2023-04-24T13:11:00;101080.06;;;19.70;80.38
77626;BME280;66794;43.764;10.436;2023-04-24T13:13:45;101078.81;;;18.73;80.56
77626;BME280;66794;43.764;10.436;2023-04-24T13:16:31;101080.47;;;19.05;85.69
77626;BME280;66794;43.764;10.436;2023-04-24T13:19:17;101091.34;;;18.94;82.48
77626;BME280;66794;43.764;10.436;2023-04-24T13:22:03;101071.00;;;19.44;82.47
77626;BME280;66794;43.764;10.436;2023-04-24T13:24:49;101067.50;;;19.12;81.72
77626;BME280;66794;43.764;10.436;2023-04-24T13:27:35;101075.31;;;18.90;80.84
77626;BME280;66794;43.764;10.436;2023-04-24T13:30:21;101060.38;;;18.48;84.49
77626;BME280;66794;43.764;10.436;2023-04-24T13:33:06;101062.19;;;19.17;84.45
77626;BME280;66794;43.764;10.436;2023-04-24T13:35:52;101070.44;;;19.61;81.10
77626;BME280;66794;43.764;10.436;2023-04-24T13:38:38;101066.50;;;19.50;84.97
77626;BME280;66794;43.764;10.436;2023-04-24T13:41:24;101073.34;;;18.73;83.40
77626;BME280;66794;43.764;10.436;2023-04-24T13:44:09;101063.44;;;18.72;86.12
77626;BME280;66794;43.764;10.436;2023-04-24T13:46:55;101064.06;;;18.67;84.40
77626;BME280;66794;43.764;10.436;2023-04-24T13:49:42;101065.25;;;19.09;83.46
77626;BME280;66794;43.764;10.436;2023-04-24T13:52:28;101045.53;;;18.62;84.89
77626;BME280;66794;43.764;10.436;2023-04-24T13:55:14;101062.91;;;18.50;85.47
77626;BME280;66794;43.764;10.436;2023-04-24T13:58:00;101052.91;;;18.30;85.46
77626;BME280;66794;43.764;10.436;2023-04-24T14:00:46;101052.88;;;18.69;87.76
77626;BME280;66794;43.764;10.436;2023-04-24T14:03:33;101039.22;;;19.12;86.43
77626;BME280;66794;43.764;10.436;2023-04-24T14:06:19;101051.09;;;18.81;86.31
77626;BME280;66794;43.764;10.436;2023-04-24T14:09:05;101055.03;;;19.78;84.88